Decoded Metar for KFVE (FRENCHVILLE in ME, USA) (IATA:FVE) | Meteo·Mobile Aviation Weather
aviador You're here:

KFVE Decoded Metar

FRENCHVILLE in ME, USA
Report Time2018-08-22 04:53:00
UTC Time2018-08-22 05:36:38
Flight Rules vfr VFR
Wind160° at 06 kt
W.Decomp.*RWY 14: 4.7 kt HW 3.7 kt RCW
W.Rank160° ranks 7
Current wind is below 160° avg. (8.1)
Visibility9999 m
Phenomena:N/A
Clouds:Scattered 039 Hf
Expected CloudBase > 1,600 ft AGL from Temp-Dew spread
CeilingNone
Temp17°C (ISA +4)
Dew Point13°C (77% RH)
AAT15.8°C
QNH1014 hPa
Density Alt1,624 ft
Elevation988 ft
Report Wrong Elevation
Raw Report
KFVE 220453Z AUTO 16006KT 10SM SCT039 17/13 A2994 RMK AO2 SLP134
T01720133 402500122=

Extra information for KFVE:More info

Metar Taf Metar & Taf Last 4 Metars F.Rules Stats Wind Profile Meteogram Temp Stats Airport Information Weather charts Add Link Nearby VenuesMetar ALERT Operation Metar Decoded Social comments

AIRNAV info for KFVE